createdAt,value
2018-12-21T00:08:32.314Z,93.10
2018-12-21T00:18:35.259Z,93.10
2018-12-21T00:28:37.889Z,93.20
2018-12-21T00:38:46.310Z,93.10
2018-12-21T00:48:49.708Z,93.00
2018-12-21T00:58:52.316Z,93.10
2018-12-21T01:08:54.929Z,93.40
2018-12-21T01:18:57.663Z,93.00
2018-12-21T01:29:00.276Z,92.90
2018-12-21T01:39:03.205Z,93.00
2018-12-21T01:49:06.108Z,93.00
2018-12-21T01:59:08.722Z,93.10
2018-12-21T02:09:11.347Z,93.10
2018-12-21T02:19:14.159Z,93.00
2018-12-21T02:29:16.780Z,93.00
2018-12-21T02:39:19.405Z,92.90
2018-12-21T02:49:22.045Z,93.10
2018-12-21T02:59:24.742Z,93.20
2018-12-21T03:09:27.333Z,93.20
2018-12-21T03:19:29.976Z,93.30
2018-12-21T03:29:32.590Z,93.50
2018-12-21T03:39:35.204Z,93.60
2018-12-21T03:49:37.820Z,93.60
2018-12-21T03:59:40.426Z,93.50
2018-12-21T04:09:43.040Z,93.50
2018-12-21T04:19:45.859Z,93.70
2018-12-21T04:29:48.470Z,94.00
2018-12-21T04:39:51.086Z,94.20
2018-12-21T04:49:53.686Z,94.50
2018-12-21T04:59:56.313Z,94.50
2018-12-21T05:09:58.906Z,94.20
2018-12-21T05:20:01.543Z,94.10
2018-12-21T05:30:06.430Z,94.20
2018-12-21T05:40:09.028Z,94.50
2018-12-21T05:50:11.649Z,94.10
2018-12-21T06:00:14.302Z,94.30
2018-12-21T06:10:16.910Z,94.40
2018-12-21T06:20:19.722Z,94.50
2018-12-21T06:30:22.326Z,94.50
2018-12-21T06:40:24.942Z,94.40
2018-12-21T06:50:27.550Z,94.40
2018-12-21T07:00:30.173Z,94.30
2018-12-21T07:10:32.778Z,94.10
2018-12-21T07:20:35.389Z,94.10
2018-12-21T07:30:38.022Z,94.00
2018-12-21T07:40:40.636Z,94.00
2018-12-21T07:50:43.530Z,94.00
2018-12-21T08:00:46.142Z,93.80
2018-12-21T08:10:49.656Z,93.80
2018-12-21T08:20:52.494Z,93.40
2018-12-21T08:30:55.101Z,93.20
2018-12-21T08:40:57.725Z,92.90
2018-12-21T08:51:00.349Z,92.70
2018-12-21T09:01:03.234Z,92.80
2018-12-21T09:11:05.838Z,92.70
2018-12-21T09:21:08.470Z,92.70
2018-12-21T09:31:11.361Z,92.60
2018-12-21T09:41:13.984Z,92.40
2018-12-21T09:51:16.584Z,92.30
2018-12-21T10:01:19.204Z,92.00
2018-12-21T10:11:21.813Z,91.90
2018-12-21T10:21:24.439Z,91.60
2018-12-21T10:31:27.327Z,91.20
2018-12-21T10:41:29.946Z,91.20
2018-12-21T10:51:32.549Z,91.30
2018-12-21T11:01:35.151Z,91.50
2018-12-21T11:11:38.054Z,91.60
2018-12-21T11:21:40.722Z,91.50
2018-12-21T11:31:43.341Z,91.70
2018-12-21T11:41:45.951Z,91.60
2018-12-21T11:51:48.558Z,91.60
2018-12-21T12:01:51.301Z,91.50
2018-12-21T12:11:53.919Z,91.60
2018-12-21T12:21:56.540Z,92.00
2018-12-21T12:31:59.158Z,92.30
2018-12-21T12:42:03.650Z,92.90
2018-12-21T12:52:06.431Z,93.10
2018-12-21T13:02:09.333Z,93.10
2018-12-21T13:12:11.940Z,92.90
2018-12-21T13:22:14.538Z,92.90
2018-12-21T13:32:17.524Z,92.80
2018-12-21T13:42:20.122Z,92.70
2018-12-21T13:52:23.098Z,92.70
2018-12-21T14:02:25.910Z,92.60
2018-12-21T14:12:28.852Z,92.60
2018-12-21T14:22:31.546Z,92.90
2018-12-21T14:32:34.170Z,93.20
2018-12-21T14:42:37.264Z,93.30
2018-12-21T14:52:39.896Z,93.70
2018-12-21T15:02:42.622Z,93.80
2018-12-21T15:12:45.240Z,94.20
2018-12-21T15:22:47.957Z,94.70
2018-12-21T15:32:50.584Z,94.80
2018-12-21T15:42:53.531Z,94.80
2018-12-21T15:52:56.131Z,94.80
2018-12-21T16:02:58.747Z,95.10
2018-12-21T16:13:01.448Z,95.30
2018-12-21T16:23:04.113Z,95.40
2018-12-21T16:33:06.772Z,95.50
2018-12-21T16:43:09.430Z,95.70
2018-12-21T16:53:12.050Z,96.00
2018-12-21T17:03:15.673Z,96.10
2018-12-21T17:13:18.638Z,96.10
2018-12-21T17:23:21.667Z,96.30
2018-12-21T17:33:24.608Z,96.40
2018-12-21T17:43:27.237Z,96.50
2018-12-21T17:53:29.863Z,96.90
2018-12-21T18:03:32.646Z,96.60
2018-12-21T18:13:35.256Z,96.70
2018-12-21T18:23:38.472Z,96.70
2018-12-21T18:33:42.948Z,96.90
2018-12-21T18:43:45.561Z,97.10
2018-12-21T18:53:48.158Z,97.80
2018-12-21T19:03:50.786Z,97.40
2018-12-21T19:13:53.408Z,97.60
2018-12-21T19:23:56.498Z,97.50
2018-12-21T19:33:59.110Z,97.50
2018-12-21T19:44:01.757Z,97.50
2018-12-21T19:54:04.365Z,97.40
2018-12-21T20:04:06.985Z,97.40
2018-12-21T20:14:09.638Z,97.30
2018-12-21T20:24:12.381Z,97.30
2018-12-21T20:34:15.005Z,97.40
2018-12-21T20:44:17.606Z,97.40
2018-12-21T20:54:20.259Z,97.20
2018-12-21T21:04:22.863Z,97.00
2018-12-21T21:14:25.478Z,96.80
2018-12-21T21:24:28.216Z,96.80
2018-12-21T21:34:30.840Z,96.70
2018-12-21T21:44:33.464Z,96.70
2018-12-21T21:54:36.073Z,96.60
2018-12-21T22:04:38.680Z,96.40
2018-12-21T22:14:41.298Z,96.40
2018-12-21T22:24:43.962Z,96.30
2018-12-21T22:34:46.561Z,96.30
2018-12-21T22:44:49.169Z,96.20
2018-12-21T22:54:51.775Z,96.00
2018-12-21T23:04:54.392Z,96.00
2018-12-21T23:14:56.994Z,96.10
2018-12-21T23:24:59.589Z,96.10
2018-12-21T23:35:02.235Z,96.20
2018-12-21T23:45:05.630Z,96.10
2018-12-21T23:55:08.517Z,96.20
